Time;durP1;ratioP1;P1;durP2;ratioP2;P2;SDS_P1;SDS_P2;PMS_P1;PMS_P2;Temp;Humidity;BMP_temperature;BMP_pressure;BME280_temperature;BME280_humidity;BME280_pressure;Samples;Min_cycle;Max_cycle;Signal;HPM_P1;HPM_P2
2022/05/23 00:01:56;;;;;;;;;3.00;3.00;;;;;20.78;58.33;99957.91;5031543;28;45444;-76
2022/05/23 00:04:21;;;;;;;;;4.25;4.00;;;;;20.78;58.14;99966.03;5031284;28;45506;-76
2022/05/23 00:06:48;;;;;;;;;3.00;3.00;;;;;20.76;57.90;99952.69;5032186;28;45494;-77
2022/05/23 00:09:14;;;;;;;;;3.50;3.50;;;;;20.74;57.72;99946.59;5014647;28;46595;-76
2022/05/23 00:11:40;;;;;;;;;5.00;4.00;;;;;20.73;58.58;99941.34;5031938;28;45896;-77
2022/05/23 00:14:06;;;;;;;;;3.50;3.50;;;;;20.66;58.53;99935.81;5030801;28;45478;-77
2022/05/23 00:16:40;;;;;;;;;4.50;4.50;;;;;20.70;58.38;99950.66;5013405;28;45933;-77
2022/05/23 00:19:09;;;;;;;;;3.75;3.75;;;;;20.66;58.41;99933.09;5029126;28;45652;-77
2022/05/23 00:21:34;;;;;;;;;3.00;3.00;;;;;20.67;58.30;99939.34;5012621;28;45554;-76
2022/05/23 00:24:00;;;;;;;;;6.25;5.00;;;;;20.66;58.05;99932.25;5018747;28;45681;-77
2022/05/23 00:26:26;;;;;;;;;6.75;5.00;;;;;20.65;57.97;99917.88;5032092;28;45986;-77
2022/05/23 00:28:51;;;;;;;;;3.00;3.00;;;;;20.62;57.81;99921.78;5034015;28;45991;-76
2022/05/23 00:31:17;;;;;;;;;4.75;4.75;;;;;20.69;58.00;99923.81;5032137;28;45578;-76
2022/05/23 00:36:28;;;;;;;;;5.50;4.00;;;;;20.68;58.09;99919.41;5031568;28;45484;-77
2022/05/23 00:38:54;;;;;;;;;4.00;4.00;;;;;20.66;58.22;99905.19;5031954;28;45702;-76
2022/05/23 00:44:06;;;;;;;;;6.75;4.50;;;;;20.67;58.13;99896.91;5035565;28;45455;-77
2022/05/23 00:46:32;;;;;;;;;4.50;4.50;;;;;20.67;58.07;99901.50;5035267;28;45418;-77
2022/05/23 00:48:59;;;;;;;;;3.00;3.00;;;;;20.64;58.13;99895.41;5018134;28;48382;-76
2022/05/23 00:51:25;;;;;;;;;4.00;4.00;;;;;20.63;58.06;99887.44;5033724;28;45408;-77
2022/05/23 00:53:54;;;;;;;;;4.75;4.25;;;;;20.62;58.33;99889.31;5018813;28;45514;-76
2022/05/23 00:56:25;;;;;;;;;5.00;3.50;;;;;20.60;58.27;99891.34;5036477;28;45471;-76
2022/05/23 00:58:57;;;;;;;;;4.00;4.00;;;;;20.56;57.96;99881.88;5015661;28;49130;-77
2022/05/23 01:01:25;;;;;;;;;3.00;3.00;;;;;20.62;58.38;99888.47;5032970;28;45305;-77
2022/05/23 01:03:51;;;;;;;;;3.00;3.00;;;;;20.58;58.39;99871.75;5016858;28;45453;-76
2022/05/23 01:06:16;;;;;;;;;3.75;3.50;;;;;20.56;58.31;99875.63;5017728;28;45736;-77
2022/05/23 01:08:44;;;;;;;;;3.25;3.25;;;;;20.56;58.25;99875.63;5034554;28;45575;-76
2022/05/23 01:11:11;;;;;;;;;4.00;4.00;;;;;20.58;58.33;99884.41;5035689;28;45391;-76
2022/05/23 01:13:36;;;;;;;;;4.75;4.75;;;;;20.56;58.30;99856.72;5030177;28;45317;-76
2022/05/23 01:16:02;;;;;;;;;2.75;2.75;;;;;20.53;58.71;99841.63;5033471;28;45896;-77
2022/05/23 01:18:27;;;;;;;;;4.00;4.00;;;;;20.51;58.51;99840.97;5017804;28;47452;-76
2022/05/23 01:20:59;;;;;;;;;3.00;3.00;;;;;20.56;58.34;99832.38;5033289;28;45420;-77
2022/05/23 01:23:41;;;;;;;;;5.00;4.00;;;;;20.55;58.18;99823.41;5006040;28;45825;-77
2022/05/23 01:26:07;;;;;;;;;5.25;5.00;;;;;20.51;58.46;99804.97;5033389;28;45670;-77
2022/05/23 01:28:38;;;;;;;;;5.50;4.25;;;;;20.52;58.51;99807.50;5034441;28;45555;-77
2022/05/23 01:31:08;;;;;;;;;3.00;3.00;;;;;20.50;58.40;99796.03;5034245;28;45539;-77
2022/05/23 01:33:34;;;;;;;;;4.00;4.00;;;;;20.49;58.29;99785.38;5033189;28;45609;-77
2022/05/23 01:35:59;;;;;;;;;4.75;4.00;;;;;20.47;58.34;99785.56;5034202;28;45546;-77
2022/05/23 01:38:26;;;;;;;;;3.75;3.75;;;;;20.48;58.59;99784.53;5015721;28;47857;-77
2022/05/23 01:40:54;;;;;;;;;3.00;3.00;;;;;20.44;58.11;99780.47;5034176;28;45942;-76
2022/05/23 01:43:20;;;;;;;;;3.00;3.00;;;;;20.48;58.47;99783.69;5034011;28;45610;-77
2022/05/23 01:45:45;;;;;;;;;6.00;4.00;;;;;20.49;58.34;99777.25;5034195;28;45578;-77
2022/05/23 01:48:11;;;;;;;;;4.00;3.00;;;;;20.43;58.29;99763.44;5035887;28;45793;-77
2022/05/23 01:50:37;;;;;;;;;3.50;3.50;;;;;20.40;58.35;99746.72;5033081;28;45407;-77
2022/05/23 01:53:03;;;;;;;;;5.00;3.50;;;;;20.38;57.95;99740.66;5034674;28;45578;-77
2022/05/23 01:55:29;;;;;;;;;3.50;3.50;;;;;20.40;58.17;99744.84;5034784;28;45557;-76
2022/05/23 01:57:54;;;;;;;;;3.50;3.50;;;;;20.39;58.31;99736.91;5034752;28;45453;-77
2022/05/23 02:03:04;;;;;;;;;2.00;2.00;;;;;20.39;58.24;99745.84;5033100;28;45479;-77
2022/05/23 02:05:33;;;;;;;;;5.00;5.00;;;;;20.35;58.33;99747.25;5033617;28;45464;-77
2022/05/23 02:07:59;;;;;;;;;3.00;3.00;;;;;20.33;58.45;99737.63;5016186;28;47104;-77
2022/05/23 02:10:25;;;;;;;;;2.75;2.75;;;;;20.32;58.39;99731.34;5032209;28;46065;-77
2022/05/23 02:12:50;;;;;;;;;5.75;3.00;;;;;20.31;58.14;99724.28;5032737;28;45671;-77
2022/05/23 02:15:17;;;;;;;;;5.00;3.25;;;;;20.27;57.94;99724.78;5031458;28;45500;-77
2022/05/23 02:17:43;;;;;;;;;3.00;3.00;;;;;20.24;58.41;99722.44;5032931;28;45623;-77
2022/05/23 02:20:10;;;;;;;;;2.00;2.00;;;;;20.25;58.50;99741.16;5032797;28;45593;-77
2022/05/23 02:22:36;;;;;;;;;4.50;4.00;;;;;20.22;58.45;99728.84;5029646;28;45518;-77
2022/05/23 02:25:02;;;;;;;;;3.75;3.75;;;;;20.21;58.45;99746.09;5014786;28;45479;-77
2022/05/23 02:27:29;;;;;;;;;4.50;4.00;;;;;20.19;58.16;99745.41;5016422;28;47108;-77
2022/05/23 02:29:55;;;;;;;;;3.00;3.00;;;;;20.19;58.44;99747.28;5035270;28;45522;-77
2022/05/23 02:32:20;;;;;;;;;3.50;3.50;;;;;20.19;58.82;99768.91;5031447;28;45469;-77
2022/05/23 02:34:45;;;;;;;;;4.00;4.00;;;;;20.17;59.02;99766.38;5032899;28;45771;-76
2022/05/23 02:37:11;;;;;;;;;4.75;4.00;;;;;20.16;59.15;99756.59;5033027;28;45585;-77
2022/05/23 02:39:36;;;;;;;;;4.25;4.25;;;;;20.10;59.16;99756.44;5033804;28;45562;-77
2022/05/23 02:42:02;;;;;;;;;4.25;4.25;;;;;20.12;58.91;99784.97;5034098;28;45491;-77
2022/05/23 02:44:27;;;;;;;;;5.50;5.00;;;;;20.10;58.99;99783.44;5014365;28;46215;-76
2022/05/23 02:46:54;;;;;;;;;5.50;4.50;;;;;20.07;59.17;99771.13;5035120;28;45407;-77
2022/05/23 02:49:20;;;;;;;;;4.75;4.00;;;;;20.04;59.38;99763.38;5032266;28;45772;-77
2022/05/23 02:51:45;;;;;;;;;5.75;5.75;;;;;20.03;59.70;99767.06;5028261;28;45655;-77
2022/05/23 02:54:11;;;;;;;;;4.75;4.00;;;;;19.99;59.23;99768.44;5032871;28;45356;-76
2022/05/23 02:56:37;;;;;;;;;4.00;4.00;;;;;19.96;59.81;99756.13;5033403;28;45670;-77
2022/05/23 02:59:03;;;;;;;;;5.00;5.00;;;;;19.94;59.91;99750.03;5033890;28;45350;-77
2022/05/23 03:01:28;;;;;;;;;5.00;5.00;;;;;19.87;59.84;99740.09;5033964;28;45547;-77
2022/05/23 03:03:53;;;;;;;;;4.50;4.50;;;;;19.87;60.04;99750.91;5030831;28;45615;-76
2022/05/23 03:06:19;;;;;;;;;4.25;4.00;;;;;19.87;60.27;99762.56;5030561;28;45526;-76
2022/05/23 03:08:44;;;;;;;;;5.25;4.50;;;;;19.83;60.37;99742.28;5032128;28;45594;-77
2022/05/23 03:11:10;;;;;;;;;7.75;5.25;;;;;19.86;60.44;99757.31;5014436;28;45429;-77
2022/05/23 03:13:36;;;;;;;;;7.25;7.25;;;;;19.84;60.32;99759.31;5014756;28;45392;-77
2022/05/23 03:16:12;;;;;;;;;5.00;5.00;;;;;19.84;60.79;99779.06;5031586;28;45559;-77
2022/05/23 03:18:37;;;;;;;;;7.00;7.00;;;;;19.83;60.52;99800.88;5011056;28;47558;-77
2022/05/23 03:21:06;;;;;;;;;8.50;7.75;;;;;19.79;60.58;99790.41;5010138;28;45542;-77
2022/05/23 03:29:05;;;;;;;;;5.25;5.25;;;;;19.85;60.73;99774.53;5034242;28;45451;-77
2022/05/23 03:31:31;;;;;;;;;6.75;5.25;;;;;19.84;60.44;99760.16;5016284;28;45514;-77
2022/05/23 03:33:56;;;;;;;;;6.50;5.25;;;;;19.84;60.50;99760.16;5015825;28;45701;-76
2022/05/23 03:36:22;;;;;;;;;5.75;5.75;;;;;19.84;60.81;99753.94;5033755;28;45551;-76
2022/05/23 03:38:48;;;;;;;;;6.25;5.50;;;;;19.82;60.97;99750.53;5016490;28;45319;-77
2022/05/23 03:41:13;;;;;;;;;5.75;5.75;;;;;19.80;60.79;99726.44;5034875;28;45456;-76
2022/05/23 03:43:39;;;;;;;;;6.00;6.00;;;;;19.83;60.48;99715.28;5034554;28;45420;-76
2022/05/23 03:46:10;;;;;;;;;9.50;7.50;;;;;19.84;60.77;99708.00;5032811;28;46358;-76
2022/05/23 03:48:36;;;;;;;;;8.25;6.75;;;;;19.80;60.60;99712.94;5034483;28;45398;-76
2022/05/23 03:51:03;;;;;;;;;6.00;6.00;;;;;19.80;60.76;99694.03;5034660;28;45744;-76
2022/05/23 03:53:30;;;;;;;;;4.00;4.00;;;;;19.82;61.03;99710.91;5017118;28;45597;-76
2022/05/23 03:55:56;;;;;;;;;6.25;5.75;;;;;19.82;61.58;99710.91;5037414;28;48120;-76
2022/05/23 03:58:22;;;;;;;;;7.75;7.00;;;;;19.83;61.94;99704.47;5009508;28;46048;-76
2022/05/23 04:00:51;;;;;;;;;7.25;5.50;;;;;19.81;61.86;99703.78;5023169;28;45453;-76
2022/05/23 04:03:18;;;;;;;;;4.00;4.00;;;;;19.83;62.31;99700.94;5021912;28;45461;-76
2022/05/23 04:05:44;;;;;;;;;8.50;7.75;;;;;19.79;62.13;99706.69;5018323;28;46772;-76
2022/05/23 04:08:11;;;;;;;;;7.50;6.00;;;;;19.79;62.42;99708.53;5021003;28;45321;-76
2022/05/23 04:10:38;;;;;;;;;8.00;6.75;;;;;19.82;62.72;99713.59;5023116;28;45250;-75
2022/05/23 04:13:03;;;;;;;;;7.75;7.75;;;;;19.77;62.29;99700.63;5023245;28;45334;-76
2022/05/23 04:15:29;;;;;;;;;7.75;7.50;;;;;19.77;62.32;99700.63;5022884;28;47368;-76
2022/05/23 04:17:56;;;;;;;;;5.75;5.75;;;;;19.75;62.23;99678.31;5018982;28;45610;-76
2022/05/23 04:20:21;;;;;;;;;7.00;6.25;;;;;19.74;62.60;99675.78;5030854;28;45451;-76
2022/05/23 04:22:47;;;;;;;;;6.00;6.00;;;;;19.75;62.57;99685.59;5005491;28;45368;-76
2022/05/23 04:25:13;;;;;;;;;6.75;6.75;;;;;19.73;63.04;99660.63;5023084;28;46551;-76
2022/05/23 04:27:38;;;;;;;;;3.25;3.25;;;;;19.73;62.89;99661.44;5023194;28;45473;-76
2022/05/23 04:30:06;;;;;;;;;4.00;4.00;;;;;19.71;62.96;99668.03;5020067;28;45348;-76
2022/05/23 04:35:17;;;;;;;;;6.75;5.75;;;;;19.66;64.20;99629.88;5018474;28;45679;-76
2022/05/23 04:37:49;;;;;;;;;5.50;4.00;;;;;19.61;64.67;99641.19;5004104;28;45320;-77
2022/05/23 04:40:23;;;;;;;;;4.00;4.00;;;;;19.62;65.14;99625.84;5004245;28;45531;-77
2022/05/23 04:42:49;;;;;;;;;3.00;3.00;;;;;19.58;65.54;99618.09;5022164;28;45428;-77
2022/05/23 04:45:15;;;;;;;;;5.75;4.00;;;;;19.61;65.61;99610.66;5020296;28;45480;-77
2022/05/23 04:50:25;;;;;;;;;4.00;4.00;;;;;19.57;65.99;99589.38;5015124;28;45491;-77
2022/05/23 04:52:52;;;;;;;;;5.75;5.00;;;;;19.57;66.39;99607.44;5021980;28;45291;-77
2022/05/23 04:55:19;;;;;;;;;3.25;3.25;;;;;19.53;66.92;99600.69;5021871;28;45440;-76
2022/05/23 04:57:44;;;;;;;;;7.50;4.50;;;;;19.54;67.11;99634.78;5004038;28;45506;-76
2022/05/23 05:00:13;;;;;;;;;5.75;4.75;;;;;19.53;66.71;99650.16;5019682;28;45391;-77
2022/05/23 05:02:39;;;;;;;;;4.00;4.00;;;;;19.54;67.27;99641.03;5017399;28;45577;-76
2022/05/23 05:05:06;;;;;;;;;4.00;4.00;;;;;19.58;66.62;99644.25;5020400;28;45670;-76
2022/05/23 05:07:32;;;;;;;;;5.50;5.25;;;;;19.58;66.79;99631.59;5022971;28;45338;-76
2022/05/23 05:09:57;;;;;;;;;4.75;4.75;;;;;19.60;66.86;99607.09;5025156;28;45467;-77
2022/05/23 05:12:23;;;;;;;;;6.00;4.25;;;;;19.59;67.45;99611.66;5024798;28;45460;-77
2022/05/23 05:14:48;;;;;;;;;8.00;6.00;;;;;19.59;67.61;99605.41;5020444;28;46401;-77
2022/05/23 05:17:14;;;;;;;;;4.25;4.25;;;;;19.59;67.33;99587.34;5023108;28;45332;-77
2022/05/23 05:19:39;;;;;;;;;5.00;5.00;;;;;19.58;67.76;99582.97;5007929;28;45471;-77
2022/05/23 05:22:04;;;;;;;;;4.75;4.75;;;;;19.57;68.20;99594.78;5025275;28;45655;-77
2022/05/23 05:24:32;;;;;;;;;5.25;5.25;;;;;19.57;68.43;99602.88;5025778;28;45677;-77
2022/05/23 05:26:58;;;;;;;;;6.75;6.75;;;;;19.56;68.26;99600.38;5003942;28;45402;-77
2022/05/23 05:29:24;;;;;;;;;6.50;6.00;;;;;19.52;68.31;99602.56;5021649;28;45421;-76
2022/05/23 05:32:17;;;;;;;;;8.00;7.00;;;;;19.58;68.50;99584.84;5025505;28;45520;-77
2022/05/23 05:34:54;;;;;;;;;8.75;7.25;;;;;19.59;68.63;99589.22;5025294;28;46452;-77
2022/05/23 05:37:25;;;;;;;;;5.00;5.00;;;;;19.56;68.50;99593.09;5007871;28;45419;-76
2022/05/23 05:39:54;;;;;;;;;8.25;8.00;;;;;19.58;68.49;99611.84;5007436;28;45329;-76
2022/05/23 05:42:26;;;;;;;;;7.00;6.50;;;;;19.55;68.56;99598.66;5024244;28;45416;-76
2022/05/23 05:45:14;;;;;;;;;6.00;6.00;;;;;19.59;68.78;99608.94;5020530;28;45442;-77
2022/05/23 05:47:42;;;;;;;;;8.00;7.00;;;;;19.61;68.93;99627.69;5034570;28;45770;-77
2022/05/23 05:50:15;;;;;;;;;7.00;7.00;;;;;19.63;68.36;99608.63;5017298;28;45403;-77
2022/05/23 05:52:40;;;;;;;;;5.75;5.75;;;;;19.66;67.97;99611.81;5024143;28;45558;-76
2022/05/23 05:55:08;;;;;;;;;7.00;7.00;;;;;19.67;68.06;99610.78;5025024;28;46032;-76
2022/05/23 05:57:34;;;;;;;;;7.00;6.00;;;;;19.67;68.60;99594.59;5007359;28;45545;-76
2022/05/23 05:59:59;;;;;;;;;7.00;7.00;;;;;19.70;68.43;99593.44;5021272;28;45274;-76
2022/05/23 06:02:25;;;;;;;;;9.00;9.00;;;;;19.71;68.05;99578.94;5020714;28;45591;-76
2022/05/23 06:04:51;;;;;;;;;10.25;8.00;;;;;19.78;68.85;99607.75;5024772;28;46531;-77
2022/05/23 06:12:48;;;;;;;;;12.75;10.00;;;;;19.81;67.30;99609.25;5024730;28;45369;-77
2022/05/23 06:15:13;;;;;;;;;10.00;7.00;;;;;19.79;67.13;99608.59;5003275;28;48154;-77
2022/05/23 06:17:43;;;;;;;;;11.25;11.00;;;;;19.78;67.39;99604.22;5008311;28;45527;-78
2022/05/23 06:20:13;;;;;;;;;11.25;9.00;;;;;19.79;67.33;99612.16;5034751;28;45269;-78
2022/05/23 06:22:39;;;;;;;;;12.00;10.00;;;;;19.79;67.05;99632.91;5030346;28;45355;-77
2022/05/23 06:25:05;;;;;;;;;6.25;6.25;;;;;19.73;67.43;99614.72;5032519;28;46200;-77
2022/05/23 06:27:31;;;;;;;;;5.00;5.00;;;;;19.78;67.28;99613.16;5017454;28;45421;-77
2022/05/23 06:29:56;;;;;;;;;9.75;8.50;;;;;19.73;67.36;99602.03;5001733;28;45389;-77
2022/05/23 06:32:22;;;;;;;;;8.00;7.25;;;;;19.74;67.45;99600.16;5031456;28;45363;-78
2022/05/23 06:34:47;;;;;;;;;8.00;7.00;;;;;19.74;67.68;99582.09;5009495;28;47244;-77
2022/05/23 06:37:13;;;;;;;;;7.50;7.50;;;;;19.77;68.16;99572.81;5026505;28;45495;-76
2022/05/23 06:39:38;;;;;;;;;7.75;7.25;;;;;19.76;67.51;99566.56;5021171;28;45623;-76
2022/05/23 06:42:05;;;;;;;;;7.00;7.00;;;;;19.75;67.69;99546.00;5023980;28;45531;-77
2022/05/23 06:44:30;;;;;;;;;11.50;10.25;;;;;19.75;68.31;99548.69;5033744;28;46379;-75
2022/05/23 06:46:56;;;;;;;;;6.75;6.75;;;;;19.79;68.45;99562.69;5031047;28;45493;-77
2022/05/23 06:49:21;;;;;;;;;7.50;7.50;;;;;19.83;68.42;99560.50;5016244;28;45527;-76
2022/05/23 06:51:51;;;;;;;;;8.50;6.75;;;;;19.87;68.89;99568.06;5008723;28;45563;-76
2022/05/23 06:54:18;;;;;;;;;7.25;6.75;;;;;19.91;68.42;99576.66;5028267;28;46994;-76
2022/05/23 06:56:43;;;;;;;;;8.25;7.75;;;;;19.88;68.29;99561.63;5031573;28;45355;-76
2022/05/23 06:59:11;;;;;;;;;6.50;6.50;;;;;19.95;68.75;99568.03;5028362;28;45625;-76
2022/05/23 07:01:36;;;;;;;;;9.00;9.00;;;;;19.94;68.82;99555.53;5023855;28;46053;-76
2022/05/23 07:04:02;;;;;;;;;9.00;9.00;;;;;19.91;68.68;99549.63;5027567;28;45485;-76
2022/05/23 07:12:23;;;;;;;;;11.25;9.25;;;;;20.00;68.62;99573.72;4971874;28;45627;-76
2022/05/23 07:14:50;;;;;;;;;8.75;6.75;;;;;20.00;69.09;99557.53;4971349;28;47605;-77
2022/05/23 07:17:16;;;;;;;;;8.00;8.00;;;;;19.99;69.04;99553.16;4973129;28;45378;-76
2022/05/23 07:19:42;;;;;;;;;9.25;9.25;;;;;19.97;69.24;99548.94;4972203;28;45548;-77
2022/05/23 07:22:08;;;;;;;;;6.75;6.00;;;;;20.00;68.85;99560.22;4973587;28;45557;-77
2022/05/23 07:24:34;;;;;;;;;8.75;8.00;;;;;20.03;68.81;99569.00;4973064;28;47681;-76
2022/05/23 07:27:00;;;;;;;;;7.00;7.00;;;;;19.92;68.72;99552.16;4971472;28;45489;-76
2022/05/23 07:29:26;;;;;;;;;9.25;9.25;;;;;19.89;68.90;99538.16;4969438;28;45448;-77
2022/05/23 07:31:52;;;;;;;;;10.25;9.50;;;;;20.03;69.03;99559.03;4971650;28;45524;-76
2022/05/23 07:34:19;;;;;;;;;8.50;8.50;;;;;20.02;68.91;99575.44;4973166;28;48213;-76
2022/05/23 07:36:45;;;;;;;;;7.00;7.00;;;;;19.99;69.58;99577.47;4971267;28;45476;-76
2022/05/23 07:39:12;;;;;;;;;8.25;7.50;;;;;20.02;68.85;99559.22;4962243;28;45429;-77
2022/05/23 07:41:39;;;;;;;;;11.25;10.00;;;;;19.99;69.24;99558.56;4973241;28;45481;-76
2022/05/23 07:44:05;;;;;;;;;10.50;9.50;;;;;19.99;69.53;99563.13;4973433;28;46277;-76
2022/05/23 07:46:31;;;;;;;;;4.50;2.25;;;;;19.97;69.59;99567.84;5022172;28;45476;-76
2022/05/23 07:48:56;;;;;;;;;7.25;7.25;;;;;20.00;69.61;99544.03;5012535;28;45408;-76
2022/05/23 07:51:23;;;;;;;;;10.25;8.75;;;;;20.02;70.18;99530.34;5002984;28;45641;-76
2022/05/23 08:02:01;;;;;;;;;13.00;13.00;;;;;20.11;70.86;99501.44;5021706;28;45459;-76
2022/05/23 08:04:27;;;;;;;;;10.00;9.75;;;;;20.13;70.76;99515.56;5023081;28;46399;-76
2022/05/23 08:06:53;;;;;;;;;10.50;9.00;;;;;20.16;70.67;99499.03;5023221;28;45628;-76
2022/05/23 08:09:19;;;;;;;;;10.50;9.75;;;;;20.17;70.84;99495.28;5022257;28;45475;-75
2022/05/23 08:11:48;;;;;;;;;10.75;10.75;;;;;20.18;70.72;99497.81;5018266;28;45282;-76
2022/05/23 08:14:14;;;;;;;;;8.50;8.50;;;;;20.21;71.41;99492.06;5002724;28;46780;-76
2022/05/23 08:16:39;;;;;;;;;9.50;9.50;;;;;20.22;70.94;99495.59;5022896;28;45638;-77
2022/05/23 08:19:06;;;;;;;;;12.50;11.50;;;;;20.25;71.01;99505.19;5023201;28;45621;-76
2022/05/23 08:21:33;;;;;;;;;9.75;9.75;;;;;20.26;71.29;99485.28;5005267;28;45497;-76
2022/05/23 08:23:59;;;;;;;;;14.25;12.75;;;;;20.25;71.44;99481.72;5027196;28;45376;-75
2022/05/23 08:26:25;;;;;;;;;13.00;11.25;;;;;20.39;71.73;99505.25;5001344;28;45571;-76
2022/05/23 08:28:51;;;;;;;;;12.00;11.25;;;;;20.42;70.86;99509.50;5022886;28;45447;-76
2022/05/23 08:31:17;;;;;;;;;13.50;12.25;;;;;20.43;71.53;99506.59;5022915;28;45356;-76
2022/05/23 08:33:43;;;;;;;;;11.75;11.75;;;;;20.40;71.01;99520.47;5009414;28;47243;-76
2022/05/23 08:36:10;;;;;;;;;13.50;12.00;;;;;20.36;70.78;99516.44;5002290;28;46411;-77
2022/05/23 08:38:35;;;;;;;;;12.25;12.25;;;;;20.36;70.77;99507.50;5023776;28;47579;-77
2022/05/23 08:41:16;;;;;;;;;12.00;12.00;;;;;20.41;70.90;99519.44;5009365;28;46453;-76
2022/05/23 08:44:13;;;;;;;;;14.50;13.75;;;;;20.37;70.53;99520.84;5013086;28;47656;-77
2022/05/23 08:46:45;;;;;;;;;9.00;9.00;;;;;20.35;69.91;99508.53;5011445;28;45932;-77
2022/05/23 08:49:39;;;;;;;;;5.00;5.00;;;;;20.33;69.69;99503.28;5011704;28;45503;-77
2022/05/23 08:52:24;;;;;;;;;6.00;6.00;;;;;20.28;69.72;99497.59;5019627;28;45373;-77
2022/05/23 08:55:01;;;;;;;;;10.00;10.00;;;;;20.27;69.55;99506.69;5031291;28;46079;-77
2022/05/23 08:57:30;;;;;;;;;9.00;8.50;;;;;20.27;69.22;99503.16;5029302;28;45464;-77
2022/05/23 09:00:02;;;;;;;;;7.00;7.00;;;;;20.27;69.22;99513.97;5029290;28;45467;-77
2022/05/23 09:02:39;;;;;;;;;7.25;7.25;;;;;20.19;69.48;99513.00;5028427;28;45506;-77
2022/05/23 09:05:18;;;;;;;;;7.50;7.00;;;;;20.25;69.41;99510.59;5029681;28;46132;-77
2022/05/23 09:07:56;;;;;;;;;8.75;8.75;;;;;20.19;69.55;99509.47;5011114;28;45540;-77
2022/05/23 09:10:30;;;;;;;;;8.50;8.50;;;;;20.22;69.45;99519.91;5030271;28;45593;-77
2022/05/23 09:12:55;;;;;;;;;10.75;10.75;;;;;20.23;69.50;99518.91;5029078;28;45383;-77
2022/05/23 09:15:22;;;;;;;;;9.25;9.25;;;;;20.22;69.00;99522.63;5028222;28;45363;-77
2022/05/23 09:17:53;;;;;;;;;8.50;8.50;;;;;20.15;68.74;99533.28;5010621;28;45620;-77
2022/05/23 09:20:27;;;;;;;;;12.75;11.00;;;;;20.06;68.67;99534.38;5025905;28;45352;-78
2022/05/23 09:22:58;;;;;;;;;10.75;10.75;;;;;20.04;68.76;99536.41;5029503;28;45621;-81
2022/05/23 09:25:26;;;;;;;;;11.25;10.25;;;;;19.97;69.02;99511.13;5029377;28;46157;-80
2022/05/23 09:28:20;;;;;;;;;12.25;10.50;;;;;20.04;68.61;99517.50;5010971;28;45537;-76
2022/05/23 09:30:55;;;;;;;;;10.75;10.75;;;;;20.07;68.98;99521.72;5024507;28;45598;-78
2022/05/23 09:33:22;;;;;;;;;11.75;10.25;;;;;20.06;68.22;99525.41;5027929;28;45479;-77
2022/05/23 09:36:07;;;;;;;;;11.00;10.25;;;;;19.98;68.07;99516.34;5030807;28;46373;-76
2022/05/23 09:38:44;;;;;;;;;12.25;10.00;;;;;19.99;68.10;99504.53;5022818;28;45294;-77
2022/05/23 09:49:52;;;;;;;;;10.00;10.00;;;;;20.12;67.20;99508.50;5028646;28;45490;-77
2022/05/23 09:52:33;;;;;;;;;11.25;10.50;;;;;20.22;67.85;99517.22;5011051;28;45750;-77
2022/05/23 09:55:05;;;;;;;;;14.25;13.50;;;;;20.29;67.08;99501.97;5028954;28;46400;-77
2022/05/23 09:57:39;;;;;;;;;13.00;10.25;;;;;20.22;66.91;99506.41;5015343;28;46650;-77
2022/05/23 10:00:07;;;;;;;;;13.75;13.00;;;;;20.26;67.12;99505.03;5025772;28;45487;-77
2022/05/23 10:02:35;;;;;;;;;13.25;13.25;;;;;20.29;66.88;99515.47;5028032;28;45397;-77
2022/05/23 10:05:01;;;;;;;;;14.00;13.25;;;;;20.34;66.59;99507.66;5011027;28;45472;-77
2022/05/23 10:07:33;;;;;;;;;11.75;11.75;;;;;20.36;66.53;99505.63;5024891;28;45591;-78
2022/05/23 10:10:06;;;;;;;;;12.75;12.75;;;;;20.38;66.95;99500.88;5024263;28;45607;-77
2022/05/23 10:12:33;;;;;;;;;15.50;14.50;;;;;20.39;66.24;99507.13;5024508;28;45448;-77
2022/05/23 10:15:25;;;;;;;;;14.25;12.50;;;;;20.43;66.47;99509.28;5005529;28;45518;-77
2022/05/23 10:18:09;;;;;;;;;17.00;14.25;;;;;20.28;66.12;99491.34;5026161;28;46439;-76
2022/05/23 10:20:39;;;;;;;;;13.00;13.00;;;;;20.32;66.20;99496.19;5023907;28;45423;-77
2022/05/23 10:23:12;;;;;;;;;15.00;13.75;;;;;20.37;65.72;99495.66;5021144;28;45365;-79
2022/05/23 10:25:44;;;;;;;;;14.75;13.25;;;;;20.35;65.73;99492.31;5029951;28;45530;-77
2022/05/23 10:28:20;;;;;;;;;15.75;15.75;;;;;20.29;65.86;99485.75;5022391;28;45511;-75
2022/05/23 10:31:16;;;;;;;;;12.50;12.50;;;;;20.28;65.58;99504.88;5006516;28;45895;-80
2022/05/23 10:33:45;;;;;;;;;15.00;11.75;;;;;20.24;65.52;99504.38;5020212;28;45416;-77
2022/05/23 10:36:18;;;;;;;;;15.25;13.25;;;;;20.24;66.21;99501.66;5022789;28;45416;-77
2022/05/23 10:42:10;;;;;;;;;15.00;15.00;;;;;20.37;66.03;99514.56;5030411;28;45661;-78
2022/05/23 10:44:53;;;;;;;;;16.50;16.50;;;;;20.31;65.27;99513.44;5022726;28;45362;-76
2022/05/23 10:47:41;;;;;;;;;17.25;15.75;;;;;20.30;65.83;99502.81;5020658;28;45388;-75
2022/05/23 10:50:44;;;;;;;;;13.75;13.75;;;;;20.36;65.60;99494.81;5020632;28;45471;-76
2022/05/23 10:53:40;;;;;;;;;17.00;14.50;;;;;20.20;65.46;99484.97;5020326;28;45487;-75
2022/05/23 10:56:15;;;;;;;;;18.50;15.00;;;;;20.16;65.82;99488.22;4987455;28;45522;-75
2022/05/23 10:58:51;;;;;;;;;17.75;16.00;;;;;20.14;66.19;99487.56;4988336;28;45440;-76
2022/05/23 11:01:34;;;;;;;;;16.25;16.25;;;;;20.16;66.47;99490.91;4987636;28;46460;-76
2022/05/23 11:04:15;;;;;;;;;18.25;16.75;;;;;20.21;66.58;99486.66;4978997;28;45799;-75
2022/05/23 11:06:55;;;;;;;;;16.75;16.75;;;;;20.24;66.35;99487.31;4988854;28;45692;-76
2022/05/23 11:09:52;;;;;;;;;18.00;16.50;;;;;20.26;66.44;99496.94;4984435;28;45650;-80
2022/05/23 11:12:35;;;;;;;;;17.75;17.00;;;;;20.25;66.14;99527.66;4981146;28;45400;-80
2022/05/23 11:15:28;;;;;;;;;19.75;19.75;;;;;20.14;66.10;99531.63;4985608;28;46048;-78
2022/05/23 11:18:24;;;;;;;;;21.25;21.00;;;;;20.12;69.02;99495.00;4966771;28;45834;-83
2022/05/23 11:20:55;;;;;;;;;21.50;21.50;;;;;20.04;69.97;99498.59;4984941;28;45566;-81
2022/05/23 11:23:33;;;;;;;;;27.25;25.75;;;;;19.88;70.17;99494.09;4979838;28;45598;-81
2022/05/23 11:26:08;;;;;;;;;23.50;23.00;;;;;19.91;70.84;99512.66;4988524;28;45910;-80
2022/05/23 11:34:43;;;;;;;;;21.75;20.25;;;;;19.57;72.12;99500.28;5027137;28;46084;-80
2022/05/23 11:40:06;;;;;;;;;22.00;21.25;;;;;19.52;72.81;99504.53;5026067;28;46851;-79
2022/05/23 11:42:44;;;;;;;;;26.25;25.25;;;;;19.51;73.18;99519.06;5027307;28;45519;-79
2022/05/23 11:48:43;;;;;;;;;21.75;20.25;;;;;19.44;73.33;99515.38;5027575;28;45569;-78
2022/05/23 11:51:24;;;;;;;;;24.00;23.50;;;;;19.50;74.26;99525.47;5026098;28;45372;-80
2022/05/23 11:54:13;;;;;;;;;23.25;22.25;;;;;19.52;74.18;99531.53;5015808;28;45673;-80
2022/05/23 11:57:00;;;;;;;;;24.50;23.25;;;;;19.47;73.51;99525.81;5026863;28;46340;-79
2022/05/23 11:59:25;;;;;;;;;21.75;21.50;;;;;19.49;73.68;99521.09;5012639;28;45294;-79
2022/05/23 12:02:14;;;;;;;;;23.50;21.75;;;;;19.47;73.27;99515.84;5020415;28;45436;-79
2022/05/23 12:04:48;;;;;;;;;26.25;26.25;;;;;19.53;73.18;99525.97;5024214;28;45437;-82
2022/05/23 12:07:41;;;;;;;;;25.25;24.25;;;;;19.52;73.13;99534.22;5006528;28;46491;-81
2022/05/23 12:10:21;;;;;;;;;26.25;25.25;;;;;19.52;73.10;99528.84;5004822;28;45668;-82
2022/05/23 12:12:50;;;;;;;;;23.50;23.50;;;;;19.47;72.57;99532.06;5004423;28;45373;-83
2022/05/23 12:15:43;;;;;;;;;18.75;17.75;;;;;19.47;72.37;99533.91;5016722;28;45364;-83
2022/05/23 12:18:12;;;;;;;;;22.25;19.75;;;;;19.44;72.11;99532.41;5027441;28;48139;-83
2022/05/23 12:20:46;;;;;;;;;22.25;22.25;;;;;19.40;72.78;99525.66;5018707;28;45567;-82
2022/05/23 12:23:17;;;;;;;;;23.50;22.75;;;;;19.43;72.61;99536.09;5029045;28;45304;-81
2022/05/23 12:25:42;;;;;;;;;23.50;22.75;;;;;19.39;72.20;99537.50;5029731;28;45524;-81
2022/05/23 12:28:17;;;;;;;;;24.50;22.00;;;;;19.27;72.59;99537.00;5029689;28;46722;-82
2022/05/23 12:31:10;;;;;;;;;20.25;19.50;;;;;19.21;72.58;99537.69;5017326;28;45527;-81
2022/05/23 12:33:42;;;;;;;;;18.75;18.50;;;;;19.16;72.50;99551.69;4999819;28;45491;-84
2022/05/23 12:36:11;;;;;;;;;18.75;18.75;;;;;19.05;73.03;99538.56;5008457;28;45817;-83
2022/05/23 12:39:18;;;;;;;;;23.00;23.00;;;;;19.03;73.07;99551.38;5008658;28;46220;-83
2022/05/23 12:42:18;;;;;;;;;21.00;20.00;;;;;19.06;73.37;99564.53;4951698;28;45512;-84
2022/05/23 12:45:18;;;;;;;;;22.00;20.50;;;;;18.97;72.83;99562.00;4948873;28;45518;-83